sensor_id;sensor_type;location;lat;lon;timestamp;temperature;humidity
46043;DHT22;32533;-33.854;18.542;2022-10-16T05:58:42;18.90;91.30
46043;DHT22;32533;-33.854;18.542;2022-10-16T06:01:20;18.90;91.60
46043;DHT22;32533;-33.854;18.542;2022-10-16T06:04:03;19.00;91.50
46043;DHT22;32533;-33.854;18.542;2022-10-16T06:06:32;19.10;91.40
46043;DHT22;32533;-33.854;18.542;2022-10-16T06:09:02;19.20;91.20
46043;DHT22;32533;-33.854;18.542;2022-10-16T06:11:31;19.30;91.00
46043;DHT22;32533;-33.854;18.542;2022-10-16T06:14:00;19.30;90.90
46043;DHT22;32533;-33.854;18.542;2022-10-16T06:16:29;19.40;90.60
46043;DHT22;32533;-33.854;18.542;2022-10-16T06:18:56;19.50;90.40
46043;DHT22;32533;-33.854;18.542;2022-10-16T06:21:24;19.50;90.40
46043;DHT22;32533;-33.854;18.542;2022-10-16T06:23:56;19.60;90.30
46043;DHT22;32533;-33.854;18.542;2022-10-16T06:26:25;19.60;90.20
46043;DHT22;32533;-33.854;18.542;2022-10-16T06:28:54;19.60;89.90
46043;DHT22;32533;-33.854;18.542;2022-10-16T06:31:21;19.60;89.60
46043;DHT22;32533;-33.854;18.542;2022-10-16T06:33:51;19.70;89.30
46043;DHT22;32533;-33.854;18.542;2022-10-16T06:36:18;19.70;88.90
46043;DHT22;32533;-33.854;18.542;2022-10-16T06:38:45;19.70;88.90
46043;DHT22;32533;-33.854;18.542;2022-10-16T06:41:17;19.80;88.80
46043;DHT22;32533;-33.854;18.542;2022-10-16T06:43:44;19.90;88.70
46043;DHT22;32533;-33.854;18.542;2022-10-16T06:46:13;19.90;88.50
46043;DHT22;32533;-33.854;18.542;2022-10-16T06:48:39;19.90;88.20
46043;DHT22;32533;-33.854;18.542;2022-10-16T06:51:10;20.00;88.00
46043;DHT22;32533;-33.854;18.542;2022-10-16T06:53:38;20.00;87.50
46043;DHT22;32533;-33.854;18.542;2022-10-16T06:56:12;20.10;87.10
46043;DHT22;32533;-33.854;18.542;2022-10-16T06:58:39;20.00;86.60
46043;DHT22;32533;-33.854;18.542;2022-10-16T07:01:06;20.10;86.50
46043;DHT22;32533;-33.854;18.542;2022-10-16T07:03:35;20.10;86.30
46043;DHT22;32533;-33.854;18.542;2022-10-16T07:06:04;20.10;86.20
46043;DHT22;32533;-33.854;18.542;2022-10-16T07:08:35;20.20;86.30
46043;DHT22;32533;-33.854;18.542;2022-10-16T07:11:03;20.20;86.10
46043;DHT22;32533;-33.854;18.542;2022-10-16T07:13:32;20.30;86.00
46043;DHT22;32533;-33.854;18.542;2022-10-16T07:16:17;20.30;85.70
46043;DHT22;32533;-33.854;18.542;2022-10-16T07:19:04;20.40;85.30
46043;DHT22;32533;-33.854;18.542;2022-10-16T07:22:11;20.40;85.20
46043;DHT22;32533;-33.854;18.542;2022-10-16T07:24:57;20.60;85.00
46043;DHT22;32533;-33.854;18.542;2022-10-16T07:27:23;20.60;84.70
46043;DHT22;32533;-33.854;18.542;2022-10-16T07:29:50;20.70;84.50
46043;DHT22;32533;-33.854;18.542;2022-10-16T07:32:16;20.70;84.30
46043;DHT22;32533;-33.854;18.542;2022-10-16T07:34:43;20.80;83.50
46043;DHT22;32533;-33.854;18.542;2022-10-16T07:37:09;20.80;83.20
46043;DHT22;32533;-33.854;18.542;2022-10-16T07:39:36;20.90;83.40
46043;DHT22;32533;-33.854;18.542;2022-10-16T07:42:02;21.00;83.10
46043;DHT22;32533;-33.854;18.542;2022-10-16T07:44:28;21.00;82.60
46043;DHT22;32533;-33.854;18.542;2022-10-16T07:46:55;21.10;81.70
46043;DHT22;32533;-33.854;18.542;2022-10-16T07:49:21;21.20;81.60
46043;DHT22;32533;-33.854;18.542;2022-10-16T07:51:48;21.30;81.30
46043;DHT22;32533;-33.854;18.542;2022-10-16T07:54:14;21.40;81.10
46043;DHT22;32533;-33.854;18.542;2022-10-16T07:56:41;21.50;81.10
46043;DHT22;32533;-33.854;18.542;2022-10-16T07:59:07;21.70;81.60
46043;DHT22;32533;-33.854;18.542;2022-10-16T08:01:34;21.90;80.60
46043;DHT22;32533;-33.854;18.542;2022-10-16T08:04:00;22.10;79.80
46043;DHT22;32533;-33.854;18.542;2022-10-16T08:06:27;22.30;79.90
46043;DHT22;32533;-33.854;18.542;2022-10-16T08:08:54;22.50;79.70
46043;DHT22;32533;-33.854;18.542;2022-10-16T08:11:20;22.60;79.40
46043;DHT22;32533;-33.854;18.542;2022-10-16T08:13:47;22.60;78.20
46043;DHT22;32533;-33.854;18.542;2022-10-16T08:16:13;22.60;78.60
46043;DHT22;32533;-33.854;18.542;2022-10-16T08:18:41;22.60;78.60
46043;DHT22;32533;-33.854;18.542;2022-10-16T08:21:12;22.70;78.70
46043;DHT22;32533;-33.854;18.542;2022-10-16T08:23:39;22.80;78.30
46043;DHT22;32533;-33.854;18.542;2022-10-16T08:26:25;22.80;78.60
46043;DHT22;32533;-33.854;18.542;2022-10-16T08:28:52;22.70;78.80
46043;DHT22;32533;-33.854;18.542;2022-10-16T08:31:18;22.70;78.70
46043;DHT22;32533;-33.854;18.542;2022-10-16T08:33:45;22.80;78.80
46043;DHT22;32533;-33.854;18.542;2022-10-16T08:36:13;22.80;79.00
46043;DHT22;32533;-33.854;18.542;2022-10-16T08:38:40;22.80;79.30
46043;DHT22;32533;-33.854;18.542;2022-10-16T08:50:14;23.30;77.00
46043;DHT22;32533;-33.854;18.542;2022-10-16T08:52:43;23.30;75.70
46043;DHT22;32533;-33.854;18.542;2022-10-16T08:55:52;23.50;74.70
46043;DHT22;32533;-33.854;18.542;2022-10-16T08:58:23;23.60;73.00
46043;DHT22;32533;-33.854;18.542;2022-10-16T09:01:03;23.70;72.30
46043;DHT22;32533;-33.854;18.542;2022-10-16T09:03:56;23.80;71.70
46043;DHT22;32533;-33.854;18.542;2022-10-16T09:06:45;23.90;71.00
46043;DHT22;32533;-33.854;18.542;2022-10-16T09:20:13;24.20;68.60
46043;DHT22;32533;-33.854;18.542;2022-10-16T09:22:42;24.20;68.20
46043;DHT22;32533;-33.854;18.542;2022-10-16T09:25:17;24.20;68.20
46043;DHT22;32533;-33.854;18.542;2022-10-16T09:27:48;24.20;68.20
46043;DHT22;32533;-33.854;18.542;2022-10-16T09:30:19;24.30;69.10
46043;DHT22;32533;-33.854;18.542;2022-10-16T09:32:50;24.30;68.80
46043;DHT22;32533;-33.854;18.542;2022-10-16T09:35:21;24.30;69.20
46043;DHT22;32533;-33.854;18.542;2022-10-16T09:38:08;24.30;68.40
46043;DHT22;32533;-33.854;18.542;2022-10-16T09:40:54;24.40;69.00
46043;DHT22;32533;-33.854;18.542;2022-10-16T09:43:25;24.50;69.70
46043;DHT22;32533;-33.854;18.542;2022-10-16T09:46:02;24.60;71.70
46043;DHT22;32533;-33.854;18.542;2022-10-16T09:48:37;24.70;71.00
46043;DHT22;32533;-33.854;18.542;2022-10-16T09:51:13;24.90;70.50
46043;DHT22;32533;-33.854;18.542;2022-10-16T09:53:47;24.90;70.40
46043;DHT22;32533;-33.854;18.542;2022-10-16T09:56:23;25.00;70.10
46043;DHT22;32533;-33.854;18.542;2022-10-16T09:58:56;25.10;69.90
46043;DHT22;32533;-33.854;18.542;2022-10-16T12:17:37;26.30;58.50
46043;DHT22;32533;-33.854;18.542;2022-10-16T12:23:00;26.00;59.20
46043;DHT22;32533;-33.854;18.542;2022-10-16T12:30:37;26.10;58.00
46043;DHT22;32533;-33.854;18.542;2022-10-16T12:33:06;26.20;58.10
46043;DHT22;32533;-33.854;18.542;2022-10-16T12:35:45;26.30;57.50
46043;DHT22;32533;-33.854;18.542;2022-10-16T12:38:18;26.50;57.20
46043;DHT22;32533;-33.854;18.542;2022-10-16T12:40:54;26.70;56.50
46043;DHT22;32533;-33.854;18.542;2022-10-16T12:43:27;26.80;55.70
46043;DHT22;32533;-33.854;18.542;2022-10-16T12:48:34;27.10;55.00
46043;DHT22;32533;-33.854;18.542;2022-10-16T12:54:20;27.30;55.40
46043;DHT22;32533;-33.854;18.542;2022-10-16T13:17:05;27.40;54.30
46043;DHT22;32533;-33.854;18.542;2022-10-16T13:28:05;27.20;55.40
46043;DHT22;32533;-33.854;18.542;2022-10-16T13:30:41;27.20;55.90
46043;DHT22;32533;-33.854;18.542;2022-10-16T13:33:16;27.10;56.10
46043;DHT22;32533;-33.854;18.542;2022-10-16T13:35:55;27.10;56.40
46043;DHT22;32533;-33.854;18.542;2022-10-16T13:38:27;27.10;56.40
46043;DHT22;32533;-33.854;18.542;2022-10-16T13:41:00;27.10;56.30
46043;DHT22;32533;-33.854;18.542;2022-10-16T13:43:34;27.20;56.40
46043;DHT22;32533;-33.854;18.542;2022-10-16T13:46:04;27.10;56.50
46043;DHT22;32533;-33.854;18.542;2022-10-16T13:48:32;27.20;56.50
46043;DHT22;32533;-33.854;18.542;2022-10-16T13:51:03;27.20;55.80
46043;DHT22;32533;-33.854;18.542;2022-10-16T13:53:35;27.20;54.50
46043;DHT22;32533;-33.854;18.542;2022-10-16T13:56:16;27.30;52.70
46043;DHT22;32533;-33.854;18.542;2022-10-16T13:58:43;27.30;51.80
46043;DHT22;32533;-33.854;18.542;2022-10-16T14:01:23;27.30;50.80
46043;DHT22;32533;-33.854;18.542;2022-10-16T14:03:51;27.30;50.80
46043;DHT22;32533;-33.854;18.542;2022-10-16T14:06:20;27.30;50.70
46043;DHT22;32533;-33.854;18.542;2022-10-16T14:09:01;27.30;50.50
46043;DHT22;32533;-33.854;18.542;2022-10-16T14:11:28;27.30;50.20
46043;DHT22;32533;-33.854;18.542;2022-10-16T14:13:55;27.20;50.00
46043;DHT22;32533;-33.854;18.542;2022-10-16T14:16:28;27.20;50.40
46043;DHT22;32533;-33.854;18.542;2022-10-16T14:18:59;27.10;51.70
46043;DHT22;32533;-33.854;18.542;2022-10-16T14:21:26;27.10;53.00
46043;DHT22;32533;-33.854;18.542;2022-10-16T14:23:53;27.10;53.70
46043;DHT22;32533;-33.854;18.542;2022-10-16T14:26:23;27.10;54.00
46043;DHT22;32533;-33.854;18.542;2022-10-16T14:32:03;27.00;54.00
46043;DHT22;32533;-33.854;18.542;2022-10-16T14:34:32;27.00;54.20
46043;DHT22;32533;-33.854;18.542;2022-10-16T14:37:14;26.90;54.40
46043;DHT22;32533;-33.854;18.542;2022-10-16T14:39:48;26.90;54.60
46043;DHT22;32533;-33.854;18.542;2022-10-16T14:42:16;26.80;54.70
46043;DHT22;32533;-33.854;18.542;2022-10-16T14:44:45;26.80;54.90
46043;DHT22;32533;-33.854;18.542;2022-10-16T14:47:17;26.80;55.30
46043;DHT22;32533;-33.854;18.542;2022-10-16T14:49:51;26.80;55.40
46043;DHT22;32533;-33.854;18.542;2022-10-16T14:52:19;26.80;55.20
46043;DHT22;32533;-33.854;18.542;2022-10-16T14:54:49;26.80;55.10
46043;DHT22;32533;-33.854;18.542;2022-10-16T14:57:22;26.80;55.00
46043;DHT22;32533;-33.854;18.542;2022-10-16T14:59:49;26.80;54.80
46043;DHT22;32533;-33.854;18.542;2022-10-16T15:02:30;26.80;54.60
46043;DHT22;32533;-33.854;18.542;2022-10-16T15:04:57;26.80;54.30
46043;DHT22;32533;-33.854;18.542;2022-10-16T15:07:24;26.70;54.10
46043;DHT22;32533;-33.854;18.542;2022-10-16T15:09:51;26.70;54.20
46043;DHT22;32533;-33.854;18.542;2022-10-16T15:12:18;26.70;54.10
46043;DHT22;32533;-33.854;18.542;2022-10-16T15:14:45;26.70;54.20
46043;DHT22;32533;-33.854;18.542;2022-10-16T15:17:12;26.70;54.20
46043;DHT22;32533;-33.854;18.542;2022-10-16T15:19:38;26.60;54.00
46043;DHT22;32533;-33.854;18.542;2022-10-16T15:22:05;26.60;54.10
46043;DHT22;32533;-33.854;18.542;2022-10-16T15:24:31;26.60;54.10
46043;DHT22;32533;-33.854;18.542;2022-10-16T15:27:06;26.50;54.40
46043;DHT22;32533;-33.854;18.542;2022-10-16T15:29:33;26.50;55.00
46043;DHT22;32533;-33.854;18.542;2022-10-16T15:31:59;26.50;55.50
46043;DHT22;32533;-33.854;18.542;2022-10-16T15:34:26;26.40;55.60
46043;DHT22;32533;-33.854;18.542;2022-10-16T15:36:52;26.40;55.90
46043;DHT22;32533;-33.854;18.542;2022-10-16T15:39:21;26.40;56.40
46043;DHT22;32533;-33.854;18.542;2022-10-16T15:41:48;26.30;56.80
46043;DHT22;32533;-33.854;18.542;2022-10-16T15:44:19;26.30;56.50
46043;DHT22;32533;-33.854;18.542;2022-10-16T15:46:47;26.30;57.10
46043;DHT22;32533;-33.854;18.542;2022-10-16T15:49:14;26.20;57.10
46043;DHT22;32533;-33.854;18.542;2022-10-16T15:51:41;26.10;56.60
46043;DHT22;32533;-33.854;18.542;2022-10-16T15:54:08;26.00;56.60
46043;DHT22;32533;-33.854;18.542;2022-10-16T15:56:35;25.90;56.70
46043;DHT22;32533;-33.854;18.542;2022-10-16T15:59:03;25.90;56.60
46043;DHT22;32533;-33.854;18.542;2022-10-16T16:01:49;25.90;56.80
46043;DHT22;32533;-33.854;18.542;2022-10-16T16:04:55;25.80;57.00
46043;DHT22;32533;-33.854;18.542;2022-10-16T16:08:01;25.80;56.90
46043;DHT22;32533;-33.854;18.542;2022-10-16T16:11:11;25.70;57.30
46043;DHT22;32533;-33.854;18.542;2022-10-16T16:13:38;25.60;58.20
46043;DHT22;32533;-33.854;18.542;2022-10-16T16:16:10;25.60;58.60
46043;DHT22;32533;-33.854;18.542;2022-10-16T16:18:38;25.50;58.70
46043;DHT22;32533;-33.854;18.542;2022-10-16T16:21:05;25.50;58.30
46043;DHT22;32533;-33.854;18.542;2022-10-16T16:23:31;25.40;58.10
46043;DHT22;32533;-33.854;18.542;2022-10-16T16:28:38;25.30;57.90
46043;DHT22;32533;-33.854;18.542;2022-10-16T16:31:26;25.30;57.90
46043;DHT22;32533;-33.854;18.542;2022-10-16T16:33:53;25.20;58.00
46043;DHT22;32533;-33.854;18.542;2022-10-16T16:36:20;25.20;58.20
46043;DHT22;32533;-33.854;18.542;2022-10-16T16:38:47;25.20;58.20
46043;DHT22;32533;-33.854;18.542;2022-10-16T16:41:20;25.20;58.60
46043;DHT22;32533;-33.854;18.542;2022-10-16T16:43:47;25.10;58.90
46043;DHT22;32533;-33.854;18.542;2022-10-16T16:46:15;25.10;59.50
46043;DHT22;32533;-33.854;18.542;2022-10-16T16:48:42;25.10;59.90
46043;DHT22;32533;-33.854;18.542;2022-10-16T16:51:13;25.10;60.20
46043;DHT22;32533;-33.854;18.542;2022-10-16T16:53:49;25.00;60.40
46043;DHT22;32533;-33.854;18.542;2022-10-16T16:56:16;25.00;60.60
46043;DHT22;32533;-33.854;18.542;2022-10-16T16:58:48;25.00;60.80
46043;DHT22;32533;-33.854;18.542;2022-10-16T17:01:14;25.00;60.90
46043;DHT22;32533;-33.854;18.542;2022-10-16T17:03:43;25.00;61.00
46043;DHT22;32533;-33.854;18.542;2022-10-16T17:06:12;25.00;61.40
46043;DHT22;32533;-33.854;18.542;2022-10-16T17:08:40;24.90;62.10
46043;DHT22;32533;-33.854;18.542;2022-10-16T17:11:12;24.90;62.20
46043;DHT22;32533;-33.854;18.542;2022-10-16T17:13:39;24.90;62.50
46043;DHT22;32533;-33.854;18.542;2022-10-16T17:16:06;24.80;62.50
46043;DHT22;32533;-33.854;18.542;2022-10-16T17:18:33;24.80;62.70
46043;DHT22;32533;-33.854;18.542;2022-10-16T17:21:02;24.70;62.90
46043;DHT22;32533;-33.854;18.542;2022-10-16T17:23:29;24.70;63.30
46043;DHT22;32533;-33.854;18.542;2022-10-16T17:25:55;24.70;63.70
46043;DHT22;32533;-33.854;18.542;2022-10-16T17:28:22;24.70;64.00
46043;DHT22;32533;-33.854;18.542;2022-10-16T17:30:49;24.60;64.20
46043;DHT22;32533;-33.854;18.542;2022-10-16T17:33:15;24.70;64.40
46043;DHT22;32533;-33.854;18.542;2022-10-16T17:35:44;24.60;64.40
46043;DHT22;32533;-33.854;18.542;2022-10-16T17:38:12;24.60;64.70
46043;DHT22;32533;-33.854;18.542;2022-10-16T17:40:39;24.60;65.00
46043;DHT22;32533;-33.854;18.542;2022-10-16T17:43:06;24.60;65.20
46043;DHT22;32533;-33.854;18.542;2022-10-16T17:45:36;24.60;65.30
46043;DHT22;32533;-33.854;18.542;2022-10-16T17:48:04;24.60;65.40
46043;DHT22;32533;-33.854;18.542;2022-10-16T17:50:30;24.60;65.60
46043;DHT22;32533;-33.854;18.542;2022-10-16T17:52:57;24.50;65.70
46043;DHT22;32533;-33.854;18.542;2022-10-16T17:55:23;24.50;65.70
46043;DHT22;32533;-33.854;18.542;2022-10-16T17:57:50;24.50;65.80
46043;DHT22;32533;-33.854;18.542;2022-10-16T18:00:18;24.50;65.90
46043;DHT22;32533;-33.854;18.542;2022-10-16T18:02:47;24.50;66.00
46043;DHT22;32533;-33.854;18.542;2022-10-16T18:05:13;24.50;66.30
46043;DHT22;32533;-33.854;18.542;2022-10-16T18:07:40;24.50;66.60
46043;DHT22;32533;-33.854;18.542;2022-10-16T18:10:07;24.40;66.70
46043;DHT22;32533;-33.854;18.542;2022-10-16T18:12:34;24.40;66.90
46043;DHT22;32533;-33.854;18.542;2022-10-16T18:15:01;24.40;67.00
46043;DHT22;32533;-33.854;18.542;2022-10-16T18:17:27;24.40;67.30
46043;DHT22;32533;-33.854;18.542;2022-10-16T18:19:54;24.50;67.50
46043;DHT22;32533;-33.854;18.542;2022-10-16T18:22:21;24.40;67.70
46043;DHT22;32533;-33.854;18.542;2022-10-16T18:24:48;24.40;68.00
46043;DHT22;32533;-33.854;18.542;2022-10-16T18:27:15;24.40;68.10
46043;DHT22;32533;-33.854;18.542;2022-10-16T18:29:41;24.40;68.20
46043;DHT22;32533;-33.854;18.542;2022-10-16T18:32:07;24.40;68.50
46043;DHT22;32533;-33.854;18.542;2022-10-16T18:34:34;24.40;68.70
46043;DHT22;32533;-33.854;18.542;2022-10-16T18:37:02;24.40;68.80
46043;DHT22;32533;-33.854;18.542;2022-10-16T18:39:29;24.40;68.90
46043;DHT22;32533;-33.854;18.542;2022-10-16T18:41:55;24.40;69.00
46043;DHT22;32533;-33.854;18.542;2022-10-16T18:44:26;24.40;69.00
46043;DHT22;32533;-33.854;18.542;2022-10-16T18:46:52;24.40;69.10
46043;DHT22;32533;-33.854;18.542;2022-10-16T18:49:23;24.30;69.10
46043;DHT22;32533;-33.854;18.542;2022-10-16T18:51:51;24.30;69.30
46043;DHT22;32533;-33.854;18.542;2022-10-16T18:54:22;24.30;69.30
46043;DHT22;32533;-33.854;18.542;2022-10-16T18:56:51;24.30;69.40
46043;DHT22;32533;-33.854;18.542;2022-10-16T18:59:18;24.30;69.40
46043;DHT22;32533;-33.854;18.542;2022-10-16T19:01:45;24.30;69.60
46043;DHT22;32533;-33.854;18.542;2022-10-16T19:04:15;24.30;69.70
46043;DHT22;32533;-33.854;18.542;2022-10-16T19:06:51;24.30;69.60
46043;DHT22;32533;-33.854;18.542;2022-10-16T19:09:25;24.30;69.50
46043;DHT22;32533;-33.854;18.542;2022-10-16T19:11:53;24.30;69.50
46043;DHT22;32533;-33.854;18.542;2022-10-16T19:14:19;24.30;69.60
46043;DHT22;32533;-33.854;18.542;2022-10-16T19:16:46;24.30;69.60
46043;DHT22;32533;-33.854;18.542;2022-10-16T19:19:16;24.30;69.70
46043;DHT22;32533;-33.854;18.542;2022-10-16T19:21:43;24.30;70.10
46043;DHT22;32533;-33.854;18.542;2022-10-16T19:24:13;24.30;70.10
46043;DHT22;32533;-33.854;18.542;2022-10-16T19:26:40;24.30;70.10
46043;DHT22;32533;-33.854;18.542;2022-10-16T19:29:08;24.30;70.40
46043;DHT22;32533;-33.854;18.542;2022-10-16T19:31:35;24.20;70.90
46043;DHT22;32533;-33.854;18.542;2022-10-16T19:34:03;24.20;70.20
46043;DHT22;32533;-33.854;18.542;2022-10-16T19:36:36;24.20;70.60
46043;DHT22;32533;-33.854;18.542;2022-10-16T19:39:14;24.20;71.10
46043;DHT22;32533;-33.854;18.542;2022-10-16T19:41:50;24.20;71.60
46043;DHT22;32533;-33.854;18.542;2022-10-16T19:44:18;24.10;71.90
46043;DHT22;32533;-33.854;18.542;2022-10-16T19:46:45;24.10;71.60
46043;DHT22;32533;-33.854;18.542;2022-10-16T19:49:15;24.10;71.20
46043;DHT22;32533;-33.854;18.542;2022-10-16T19:51:49;24.10;71.00
46043;DHT22;32533;-33.854;18.542;2022-10-16T19:54:17;24.10;70.90
46043;DHT22;32533;-33.854;18.542;2022-10-16T19:56:43;24.00;70.60
46043;DHT22;32533;-33.854;18.542;2022-10-16T19:59:11;24.00;70.40
46043;DHT22;32533;-33.854;18.542;2022-10-16T20:01:38;24.00;70.20
46043;DHT22;32533;-33.854;18.542;2022-10-16T20:04:05;23.90;70.00
46043;DHT22;32533;-33.854;18.542;2022-10-16T20:06:32;23.90;69.90
46043;DHT22;32533;-33.854;18.542;2022-10-16T20:08:58;23.90;69.80
46043;DHT22;32533;-33.854;18.542;2022-10-16T20:11:28;23.90;69.70
46043;DHT22;32533;-33.854;18.542;2022-10-16T20:13:57;23.90;69.60
46043;DHT22;32533;-33.854;18.542;2022-10-16T20:16:26;23.90;69.40
46043;DHT22;32533;-33.854;18.542;2022-10-16T20:18:53;23.80;69.20
46043;DHT22;32533;-33.854;18.542;2022-10-16T20:21:22;23.80;69.20
46043;DHT22;32533;-33.854;18.542;2022-10-16T20:23:49;23.80;69.60
46043;DHT22;32533;-33.854;18.542;2022-10-16T20:26:17;23.70;70.40
46043;DHT22;32533;-33.854;18.542;2022-10-16T20:28:44;23.70;71.50
46043;DHT22;32533;-33.854;18.542;2022-10-16T20:31:17;23.60;72.20
46043;DHT22;32533;-33.854;18.542;2022-10-16T20:33:48;23.60;72.80
46043;DHT22;32533;-33.854;18.542;2022-10-16T20:36:16;23.60;73.10
46043;DHT22;32533;-33.854;18.542;2022-10-16T20:38:43;23.50;73.50
46043;DHT22;32533;-33.854;18.542;2022-10-16T20:41:10;23.50;73.80
46043;DHT22;32533;-33.854;18.542;2022-10-16T20:43:43;23.50;74.20
46043;DHT22;32533;-33.854;18.542;2022-10-16T20:46:12;23.50;74.50
46043;DHT22;32533;-33.854;18.542;2022-10-16T20:48:40;23.50;74.80
46043;DHT22;32533;-33.854;18.542;2022-10-16T20:51:30;23.50;75.10
46043;DHT22;32533;-33.854;18.542;2022-10-16T20:54:04;23.40;75.20
46043;DHT22;32533;-33.854;18.542;2022-10-16T20:56:35;23.40;75.90
46043;DHT22;32533;-33.854;18.542;2022-10-16T20:59:03;23.40;76.60
46043;DHT22;32533;-33.854;18.542;2022-10-16T21:01:30;23.40;77.20
46043;DHT22;32533;-33.854;18.542;2022-10-16T21:04:01;23.40;78.00
46043;DHT22;32533;-33.854;18.542;2022-10-16T21:06:29;23.30;78.70
46043;DHT22;32533;-33.854;18.542;2022-10-16T21:08:57;23.30;79.30
46043;DHT22;32533;-33.854;18.542;2022-10-16T21:11:30;23.30;79.50
46043;DHT22;32533;-33.854;18.542;2022-10-16T21:13:59;23.30;79.70
46043;DHT22;32533;-33.854;18.542;2022-10-16T21:16:26;23.30;79.80
46043;DHT22;32533;-33.854;18.542;2022-10-16T21:18:53;23.30;80.00
46043;DHT22;32533;-33.854;18.542;2022-10-16T21:21:26;23.30;80.10
46043;DHT22;32533;-33.854;18.542;2022-10-16T21:23:53;23.20;80.20
46043;DHT22;32533;-33.854;18.542;2022-10-16T21:26:21;23.20;80.50
46043;DHT22;32533;-33.854;18.542;2022-10-16T21:28:59;23.20;80.60
46043;DHT22;32533;-33.854;18.542;2022-10-16T21:31:26;23.20;80.70
46043;DHT22;32533;-33.854;18.542;2022-10-16T21:33:52;23.20;80.70
46043;DHT22;32533;-33.854;18.542;2022-10-16T21:36:29;23.20;80.80
46043;DHT22;32533;-33.854;18.542;2022-10-16T21:39:03;23.20;81.00
46043;DHT22;32533;-33.854;18.542;2022-10-16T21:41:31;23.20;81.00
46043;DHT22;32533;-33.854;18.542;2022-10-16T21:43:58;23.20;81.00
46043;DHT22;32533;-33.854;18.542;2022-10-16T21:46:27;23.20;81.10
46043;DHT22;32533;-33.854;18.542;2022-10-16T21:48:55;23.20;81.00
46043;DHT22;32533;-33.854;18.542;2022-10-16T21:51:30;23.10;80.90
46043;DHT22;32533;-33.854;18.542;2022-10-16T21:54:01;23.10;80.80
46043;DHT22;32533;-33.854;18.542;2022-10-16T21:56:28;23.10;80.60
46043;DHT22;32533;-33.854;18.542;2022-10-16T21:58:54;23.10;80.50
46043;DHT22;32533;-33.854;18.542;2022-10-16T22:01:23;23.10;80.40
46043;DHT22;32533;-33.854;18.542;2022-10-16T22:03:50;23.10;80.30
46043;DHT22;32533;-33.854;18.542;2022-10-16T22:06:19;23.00;80.10
46043;DHT22;32533;-33.854;18.542;2022-10-16T22:08:47;23.00;80.10
46043;DHT22;32533;-33.854;18.542;2022-10-16T22:11:19;23.00;80.00
46043;DHT22;32533;-33.854;18.542;2022-10-16T22:13:49;23.00;80.00
46043;DHT22;32533;-33.854;18.542;2022-10-16T22:16:19;23.00;80.10
46043;DHT22;32533;-33.854;18.542;2022-10-16T22:18:46;23.00;80.20
46043;DHT22;32533;-33.854;18.542;2022-10-16T22:21:13;23.00;80.30
46043;DHT22;32533;-33.854;18.542;2022-10-16T22:23:39;23.00;80.30
46043;DHT22;32533;-33.854;18.542;2022-10-16T22:26:08;23.00;80.40
46043;DHT22;32533;-33.854;18.542;2022-10-16T22:28:35;22.90;80.40
46043;DHT22;32533;-33.854;18.542;2022-10-16T22:31:07;22.90;80.40
46043;DHT22;32533;-33.854;18.542;2022-10-16T22:33:34;22.90;80.30
46043;DHT22;32533;-33.854;18.542;2022-10-16T22:36:05;22.90;80.20
46043;DHT22;32533;-33.854;18.542;2022-10-16T22:38:33;22.90;80.80
46043;DHT22;32533;-33.854;18.542;2022-10-16T22:41:08;22.90;80.10
46043;DHT22;32533;-33.854;18.542;2022-10-16T22:43:35;22.90;79.90
46043;DHT22;32533;-33.854;18.542;2022-10-16T22:46:03;22.80;79.80
46043;DHT22;32533;-33.854;18.542;2022-10-16T22:48:30;22.80;79.80
46043;DHT22;32533;-33.854;18.542;2022-10-16T22:50:56;22.80;79.70
46043;DHT22;32533;-33.854;18.542;2022-10-16T22:53:23;22.80;79.90
46043;DHT22;32533;-33.854;18.542;2022-10-16T22:55:49;22.80;80.20
46043;DHT22;32533;-33.854;18.542;2022-10-16T22:58:17;22.80;80.50
46043;DHT22;32533;-33.854;18.542;2022-10-16T23:00:44;22.70;80.70
46043;DHT22;32533;-33.854;18.542;2022-10-16T23:03:30;22.70;80.80
46043;DHT22;32533;-33.854;18.542;2022-10-16T23:06:36;22.70;80.90
46043;DHT22;32533;-33.854;18.542;2022-10-16T23:09:43;22.70;81.10
46043;DHT22;32533;-33.854;18.542;2022-10-16T23:12:49;22.70;81.40
46043;DHT22;32533;-33.854;18.542;2022-10-16T23:15:58;22.70;81.60
46043;DHT22;32533;-33.854;18.542;2022-10-16T23:19:04;22.60;81.60
46043;DHT22;32533;-33.854;18.542;2022-10-16T23:22:10;22.60;81.60
46043;DHT22;32533;-33.854;18.542;2022-10-16T23:25:16;22.60;81.40
46043;DHT22;32533;-33.854;18.542;2022-10-16T23:28:22;22.60;81.30
46043;DHT22;32533;-33.854;18.542;2022-10-16T23:31:29;22.60;81.30
46043;DHT22;32533;-33.854;18.542;2022-10-16T23:34:35;22.60;81.30
46043;DHT22;32533;-33.854;18.542;2022-10-16T23:37:41;22.60;81.30
46043;DHT22;32533;-33.854;18.542;2022-10-16T23:40:47;22.60;81.50
46043;DHT22;32533;-33.854;18.542;2022-10-16T23:43:53;22.60;81.30
46043;DHT22;32533;-33.854;18.542;2022-10-16T23:46:59;22.50;81.20
46043;DHT22;32533;-33.854;18.542;2022-10-16T23:50:05;22.60;81.20
46043;DHT22;32533;-33.854;18.542;2022-10-16T23:53:13;22.50;81.00
46043;DHT22;32533;-33.854;18.542;2022-10-16T23:56:19;22.50;81.10
46043;DHT22;32533;-33.854;18.542;2022-10-16T23:59:25;22.50;81.10
